Allport, Pennsylvania
Current Conditions -  °F | °C
As of 7:54 AM on Monday 22 Dec 2014 (Local Time) from KFIG Reporting Station
Clear Clear  
Wind Chill:   Ceiling: Unl
Heat Index: 20°   Visibility: 9mi
Dew Point: 18°   Wind: 9mph
Humidity: 92%   Direction: 40°NE
Pressure: 30.2"   Gusts: NA
Location:  40.96°N, 78.2°W
Report Text: KFIG 221254Z AUTO 04008KT 9SM CLR M07/M08 A3020 RMK AO2 SLP250 I1000 T10671078
Loading
Personal Weather Stations






























Interactive Weather Map New forecast layout! Learn more

10-Day Weather Forecast

Advertisements
Track Severe Weather on mobile